Time;durP1;ratioP1;P1;durP2;ratioP2;P2;SDS_P1;SDS_P2;PMS_P1;PMS_P2;Temp;Humidity;BMP_temperature;BMP_pressure;BME280_temperature;BME280_humidity;BME280_pressure;Samples;Min_cycle;Max_cycle;Signal;HPM_P1;HPM_P2
2022/09/02 00:01:01;;;;;;;;;9.00;9.00;;;;;22.09;45.89;100831.22;5017779;28;45293;-78
2022/09/02 00:03:33;;;;;;;;;10.00;10.00;;;;;22.00;46.18;100828.91;5030525;28;45447;-79
2022/09/02 00:06:00;;;;;;;;;12.67;12.67;;;;;22.07;45.81;100837.69;5017550;28;45419;-78
2022/09/02 00:08:25;;;;;;;;;12.00;12.00;;;;;21.98;46.25;100828.38;5015862;28;48135;-79
2022/09/02 00:10:51;;;;;;;;;12.00;12.00;;;;;21.88;46.85;100817.41;5017085;28;45462;-79
2022/09/02 00:13:19;;;;;;;;;11.33;11.33;;;;;21.93;46.10;100829.09;5017744;28;45388;-80
2022/09/02 00:15:46;;;;;;;;;10.33;10.33;;;;;21.87;46.57;100830.09;5018350;28;45310;-79
2022/09/02 00:18:12;;;;;;;;;13.00;13.00;;;;;21.85;46.49;100826.81;5052617;28;47211;-80
2022/09/02 00:20:43;;;;;;;;;13.33;13.33;;;;;21.86;46.58;100817.66;5019726;28;45278;-79
2022/09/02 00:23:09;;;;;;;;;12.00;12.00;;;;;21.88;46.14;100814.69;5025846;28;45362;-78
2022/09/02 00:25:37;;;;;;;;;13.00;13.00;;;;;21.90;46.84;100823.38;5032131;28;47487;-79
2022/09/02 00:28:03;;;;;;;;;13.67;13.67;;;;;21.85;46.64;100810.59;5017233;28;45343;-78
2022/09/02 00:30:29;;;;;;;;;11.33;11.33;;;;;21.84;46.96;100808.94;5017204;28;45230;-79
2022/09/02 00:32:54;;;;;;;;;14.00;13.67;;;;;21.86;47.11;100816.81;5022211;28;45322;-79
2022/09/02 00:35:20;;;;;;;;;12.00;12.00;;;;;21.77;47.38;100802.91;5024861;28;45180;-79
2022/09/02 00:37:45;;;;;;;;;13.00;13.00;;;;;21.65;47.32;100792.97;5030419;28;48256;-78
2022/09/02 00:40:12;;;;;;;;;13.00;13.00;;;;;21.59;47.66;100793.13;5015637;28;45367;-79
2022/09/02 00:42:38;;;;;;;;;10.67;10.67;;;;;21.52;47.71;100799.53;5017230;28;45254;-79
2022/09/02 00:45:05;;;;;;;;;13.00;13.00;;;;;21.43;47.92;100792.91;5017038;28;45344;-78
2022/09/02 00:47:31;;;;;;;;;13.00;13.00;;;;;21.35;47.99;100796.84;5017080;28;46215;-78
2022/09/02 00:49:58;;;;;;;;;13.00;13.00;;;;;21.40;47.66;100805.03;5016390;28;45272;-79
2022/09/02 00:52:29;;;;;;;;;14.00;14.00;;;;;21.44;48.11;100799.97;5017129;28;45436;-78
2022/09/02 00:55:06;;;;;;;;;12.67;12.67;;;;;21.42;48.39;100780.44;5034769;28;46386;-79
2022/09/02 00:57:40;;;;;;;;;12.33;12.33;;;;;21.44;48.18;100789.97;5032512;28;46555;-79
2022/09/02 01:00:12;;;;;;;;;11.00;11.00;;;;;21.49;48.19;100796.53;5020530;28;45405;-79
2022/09/02 01:02:40;;;;;;;;;9.00;9.00;;;;;21.51;48.67;100797.06;5017008;28;45297;-79
2022/09/02 01:05:08;;;;;;;;;11.67;11.67;;;;;21.43;48.22;100784.81;5016554;28;45563;-79
2022/09/02 01:07:37;;;;;;;;;12.67;12.67;;;;;21.41;48.39;100784.22;5016563;28;45435;-79
2022/09/02 01:10:08;;;;;;;;;10.33;10.33;;;;;21.46;48.65;100797.00;5029188;28;45821;-78
2022/09/02 01:12:34;;;;;;;;;15.00;15.00;;;;;21.39;49.28;100787.19;5022135;28;45269;-78
2022/09/02 01:15:00;;;;;;;;;12.00;12.00;;;;;21.43;49.16;100790.22;5023757;28;45336;-79
2022/09/02 01:17:26;;;;;;;;;14.00;13.00;;;;;21.42;49.25;100785.84;5050670;28;47346;-78
2022/09/02 01:19:58;;;;;;;;;11.67;11.67;;;;;21.40;49.26;100775.28;5025783;28;45613;-79
2022/09/02 01:22:28;;;;;;;;;13.67;13.33;;;;;21.36;49.23;100774.16;5016570;28;45429;-78
2022/09/02 01:24:56;;;;;;;;;9.67;9.67;;;;;21.39;49.55;100783.63;5025304;28;46366;-79
2022/09/02 01:27:22;;;;;;;;;14.00;14.00;;;;;21.42;49.54;100794.78;5031670;28;47429;-79
2022/09/02 01:29:53;;;;;;;;;12.33;12.33;;;;;21.46;49.72;100789.69;5016557;28;45697;-79
2022/09/02 01:32:20;;;;;;;;;12.67;11.33;;;;;21.49;49.68;100780.28;5016264;28;45302;-79
2022/09/02 01:34:46;;;;;;;;;11.33;11.33;;;;;21.53;49.36;100779.56;5022415;28;47732;-78
2022/09/02 01:37:11;;;;;;;;;12.33;12.33;;;;;21.52;49.85;100771.69;5051626;28;47505;-79
2022/09/02 01:39:37;;;;;;;;;13.00;12.67;;;;;21.56;49.52;100770.13;5016492;28;45320;-79
2022/09/02 01:42:03;;;;;;;;;10.33;10.00;;;;;21.55;50.01;100774.69;5016292;28;45315;-79
2022/09/02 01:44:29;;;;;;;;;11.33;11.33;;;;;21.61;50.10;100777.50;5016024;28;45406;-78
2022/09/02 01:46:54;;;;;;;;;15.00;13.00;;;;;21.67;49.80;100779.22;5016278;28;45576;-78
2022/09/02 01:49:20;;;;;;;;;15.00;13.33;;;;;21.69;49.93;100774.34;5028588;28;45458;-79
2022/09/02 01:51:46;;;;;;;;;13.33;13.33;;;;;21.66;49.67;100766.75;5019335;28;45332;-79
2022/09/02 01:54:12;;;;;;;;;10.67;10.67;;;;;21.69;49.67;100768.94;5015983;28;45358;-79
2022/09/02 01:56:37;;;;;;;;;9.67;9.67;;;;;21.75;50.03;100769.84;5031937;28;47099;-79
2022/09/02 01:59:06;;;;;;;;;10.67;10.00;;;;;21.78;49.67;100778.31;5034549;28;45951;-79
2022/09/02 02:01:32;;;;;;;;;12.00;10.67;;;;;21.75;49.78;100768.00;5022658;28;45353;-79
2022/09/02 02:03:57;;;;;;;;;12.00;12.00;;;;;21.75;49.87;100759.03;5017315;28;45973;-79
2022/09/02 02:06:22;;;;;;;;;12.67;12.67;;;;;21.77;49.70;100762.34;5026119;28;47072;-79
2022/09/02 02:08:48;;;;;;;;;13.33;13.33;;;;;21.77;50.46;100768.56;5017382;28;45648;-78
2022/09/02 02:11:22;;;;;;;;;14.67;14.00;;;;;21.83;50.23;100761.34;5017384;28;45350;-78
2022/09/02 02:13:48;;;;;;;;;12.67;12.67;;;;;21.80;50.09;100748.31;5018584;28;45417;-78
2022/09/02 02:16:14;;;;;;;;;14.00;14.00;;;;;21.82;50.07;100751.59;5026120;28;48079;-79
2022/09/02 02:18:39;;;;;;;;;15.00;15.00;;;;;21.83;50.41;100747.81;5053126;28;45750;-79
2022/09/02 02:21:05;;;;;;;;;14.00;13.67;;;;;21.92;50.26;100756.31;5019136;28;45728;-78
2022/09/02 02:23:30;;;;;;;;;12.67;12.67;;;;;21.96;50.19;100754.72;5030334;28;46124;-79
2022/09/02 02:25:55;;;;;;;;;11.33;11.33;;;;;21.91;50.30;100755.47;5033667;28;48259;-79
2022/09/02 02:28:21;;;;;;;;;12.00;12.00;;;;;21.94;50.39;100759.59;5028303;28;45367;-79
2022/09/02 02:30:46;;;;;;;;;15.00;13.67;;;;;21.90;50.58;100750.31;5022114;28;45371;-78
2022/09/02 02:33:12;;;;;;;;;9.67;9.67;;;;;21.90;50.73;100759.28;5026165;28;45850;-79
2022/09/02 02:35:37;;;;;;;;;13.33;13.00;;;;;21.97;50.74;100763.69;5038065;28;45669;-79
2022/09/02 02:38:03;;;;;;;;;14.00;13.33;;;;;21.96;50.90;100762.84;5023869;28;45893;-79
2022/09/02 02:40:28;;;;;;;;;13.00;13.00;;;;;21.89;50.42;100754.09;5053938;28;45254;-78
2022/09/02 02:42:54;;;;;;;;;12.00;12.00;;;;;21.98;50.50;100759.91;5033563;28;46006;-79
2022/09/02 02:45:21;;;;;;;;;12.33;11.67;;;;;21.92;50.47;100756.31;5036876;27;47167;-79
2022/09/02 02:47:46;;;;;;;;;11.67;11.67;;;;;21.94;50.55;100751.47;5021581;28;45339;-79
2022/09/02 02:50:14;;;;;;;;;13.00;12.33;;;;;21.93;50.27;100755.22;5018616;28;45424;-79
2022/09/02 02:52:41;;;;;;;;;14.00;14.00;;;;;21.91;50.34;100774.41;5018132;28;45464;-79
2022/09/02 02:55:08;;;;;;;;;12.00;11.67;;;;;21.92;50.33;100800.44;5023667;28;47166;-79
2022/09/02 02:57:34;;;;;;;;;14.00;13.00;;;;;21.85;50.30;100763.81;5034055;28;45270;-79
2022/09/02 03:00:19;;;;;;;;;13.00;12.33;;;;;21.86;50.35;100787.91;5023033;28;45337;-80
2022/09/02 03:02:45;;;;;;;;;13.67;13.67;;;;;21.85;50.84;100786.22;5036916;28;46013;-80
2022/09/02 03:05:12;;;;;;;;;14.00;14.00;;;;;21.92;51.67;100815.81;5021962;28;46374;-79
2022/09/02 03:07:38;;;;;;;;;14.00;13.67;;;;;21.85;51.74;100804.38;5018313;28;45262;-79
2022/09/02 03:10:07;;;;;;;;;14.33;14.33;;;;;21.88;51.24;100795.75;5018177;28;45267;-79
2022/09/02 03:12:35;;;;;;;;;14.00;14.00;;;;;21.84;51.92;100805.44;5017958;28;45486;-79
2022/09/02 03:15:00;;;;;;;;;12.67;12.33;;;;;21.87;51.22;100786.81;5017915;28;46271;-79
2022/09/02 03:17:26;;;;;;;;;14.67;14.67;;;;;21.88;51.72;100766.81;5028148;28;45328;-80
2022/09/02 03:19:52;;;;;;;;;14.33;14.33;;;;;21.90;52.09;100797.13;5027918;28;45281;-80
2022/09/02 03:22:17;;;;;;;;;14.67;14.67;;;;;21.85;51.42;100774.63;5033403;28;45909;-79
2022/09/02 03:24:42;;;;;;;;;12.67;12.67;;;;;21.90;51.86;100763.84;5017792;28;45445;-79
2022/09/02 03:27:08;;;;;;;;;16.33;14.00;;;;;21.93;52.03;100785.00;5027977;28;46171;-79
2022/09/02 03:29:33;;;;;;;;;13.00;13.00;;;;;21.94;51.31;100779.34;5018180;28;45236;-78
2022/09/02 03:31:59;;;;;;;;;16.00;15.00;;;;;21.98;52.23;100784.25;5017984;28;45304;-79
2022/09/02 03:34:25;;;;;;;;;15.67;14.33;;;;;22.01;52.08;100792.69;5051625;28;47285;-79
2022/09/02 03:39:16;;;;;;;;;13.67;13.67;;;;;21.93;52.41;100775.00;5037237;28;68781;-78
2022/09/02 03:41:42;;;;;;;;;14.00;14.00;;;;;21.98;52.84;100782.38;5037255;28;45482;-79
2022/09/02 03:44:09;;;;;;;;;14.00;12.67;;;;;21.96;53.11;100786.41;5035770;28;47273;-79
2022/09/02 03:46:34;;;;;;;;;16.33;16.33;;;;;21.88;53.11;100790.34;5038213;28;45347;-79
2022/09/02 03:49:01;;;;;;;;;13.00;13.00;;;;;21.82;52.82;100776.75;5038309;28;45296;-79
2022/09/02 03:51:26;;;;;;;;;14.67;14.00;;;;;21.81;52.99;100771.56;5036814;28;45944;-79
2022/09/02 03:53:52;;;;;;;;;15.00;13.67;;;;;21.74;53.79;100777.16;5037906;28;46063;-78
2022/09/02 03:56:18;;;;;;;;;15.67;15.67;;;;;21.65;53.38;100770.53;5036519;28;46063;-79
2022/09/02 03:58:46;;;;;;;;;17.67;15.33;;;;;21.62;53.33;100766.44;5038056;28;45226;-79
2022/09/02 04:01:21;;;;;;;;;14.00;14.00;;;;;21.59;53.59;100766.94;5036670;28;46218;-78
2022/09/02 04:03:47;;;;;;;;;13.67;13.67;;;;;21.60;53.42;100775.84;5035328;28;45511;-78
2022/09/02 04:06:15;;;;;;;;;13.67;13.67;;;;;21.62;53.64;100768.31;5034108;28;45591;-78
2022/09/02 04:08:41;;;;;;;;;15.00;14.67;;;;;21.56;53.85;100760.13;5036400;28;45635;-78
2022/09/02 04:11:13;;;;;;;;;13.67;13.67;;;;;21.57;53.75;100769.06;5029715;28;45481;-78
2022/09/02 04:13:39;;;;;;;;;17.00;14.67;;;;;21.53;53.54;100765.22;5034220;28;48008;-78
2022/09/02 04:16:13;;;;;;;;;14.67;14.67;;;;;21.44;53.67;100752.13;5024125;28;46202;-79
2022/09/02 04:18:40;;;;;;;;;13.67;13.67;;;;;21.46;53.98;100748.34;5023230;28;45416;-78
2022/09/02 04:21:05;;;;;;;;;14.33;14.00;;;;;21.42;54.05;100756.13;5030361;28;45267;-79
2022/09/02 04:23:32;;;;;;;;;14.33;14.33;;;;;21.36;54.30;100749.81;5025854;28;46942;-78
2022/09/02 04:25:58;;;;;;;;;14.00;14.00;;;;;21.37;54.16;100756.84;5016207;28;45472;-78
2022/09/02 04:28:24;;;;;;;;;15.00;15.00;;;;;21.38;54.07;100753.13;5017692;28;45289;-78
2022/09/02 04:30:50;;;;;;;;;14.00;13.00;;;;;21.34;54.17;100751.16;5015849;28;46036;-78
2022/09/02 04:33:16;;;;;;;;;14.67;14.67;;;;;21.29;54.05;100750.00;5017330;28;45332;-79
2022/09/02 04:35:44;;;;;;;;;14.00;12.67;;;;;21.30;54.03;100751.63;5030316;28;45690;-79
2022/09/02 04:40:40;;;;;;;;;14.33;14.33;;;;;21.33;54.75;100752.22;5014738;28;73876;-78
2022/09/02 04:43:05;;;;;;;;;23.33;23.00;;;;;21.35;54.74;100750.06;5015890;28;47208;-78
2022/09/02 04:45:31;;;;;;;;;17.00;16.33;;;;;21.29;54.58;100743.78;5016127;28;45280;-78
2022/09/02 04:47:56;;;;;;;;;14.00;14.00;;;;;21.29;55.03;100743.78;5017857;28;45450;-79
2022/09/02 04:50:22;;;;;;;;;15.00;14.67;;;;;21.34;54.97;100751.94;5017512;28;45492;-78
2022/09/02 04:52:47;;;;;;;;;16.33;16.33;;;;;21.33;54.82;100744.09;5019985;28;48510;-79
2022/09/02 04:55:12;;;;;;;;;18.67;14.67;;;;;21.28;55.12;100737.53;5036024;28;45769;-78
2022/09/02 04:57:38;;;;;;;;;24.00;23.00;;;;;21.31;55.13;100738.94;5037313;28;45289;-76
2022/09/02 05:00:05;;;;;;;;;16.00;16.00;;;;;21.34;55.05;100730.31;5035261;28;45548;-78
2022/09/02 05:02:31;;;;;;;;;14.33;14.33;;;;;21.36;54.67;100738.19;5036803;28;45481;-77
2022/09/02 05:04:57;;;;;;;;;18.33;15.67;;;;;21.30;54.79;100730.00;5032488;28;45529;-77
2022/09/02 05:07:22;;;;;;;;;15.33;14.33;;;;;21.28;54.95;100737.53;5025631;28;45355;-78
2022/09/02 05:09:48;;;;;;;;;14.33;14.33;;;;;21.26;54.36;100733.44;5030351;28;45263;-77
2022/09/02 05:12:13;;;;;;;;;15.67;15.67;;;;;21.25;54.54;100732.63;5016693;28;45529;-77
2022/09/02 05:14:39;;;;;;;;;14.67;14.67;;;;;21.30;54.10;100740.81;5016766;28;45290;-77
2022/09/02 05:17:04;;;;;;;;;15.33;15.33;;;;;21.32;54.33;100743.28;5030529;28;45676;-77
2022/09/02 05:19:29;;;;;;;;;15.00;14.33;;;;;21.35;54.14;100753.59;5014063;28;47106;-77
2022/09/02 05:21:57;;;;;;;;;15.33;15.33;;;;;21.31;54.65;100753.25;5016140;28;45499;-77
2022/09/02 05:24:24;;;;;;;;;14.00;12.67;;;;;21.29;54.33;100750.00;5014932;28;45440;-78
2022/09/02 05:26:50;;;;;;;;;17.00;16.00;;;;;21.29;54.48;100750.00;5028231;28;45368;-77
2022/09/02 05:29:19;;;;;;;;;15.67;15.00;;;;;21.31;53.96;100752.47;5037113;28;45391;-77
2022/09/02 05:31:45;;;;;;;;;14.67;14.67;;;;;21.31;53.92;100755.97;5023654;28;46222;-76
2022/09/02 05:34:10;;;;;;;;;14.67;14.67;;;;;21.22;54.38;100735.81;5025419;28;45543;-77
2022/09/02 05:36:36;;;;;;;;;16.33;16.33;;;;;21.24;54.04;100747.22;5033800;28;45401;-77
2022/09/02 05:39:01;;;;;;;;;29.67;27.67;;;;;21.31;53.71;100753.25;5025159;28;45623;-77
2022/09/02 05:41:27;;;;;;;;;50.25;41.75;;;;;21.35;54.13;100750.06;5015244;28;45457;-77
2022/09/02 05:43:55;;;;;;;;;45.00;36.33;;;;;21.39;53.56;100743.09;5014932;28;45456;-77
2022/09/02 05:46:23;;;;;;;;;27.67;26.67;;;;;21.43;53.82;100747.75;5023652;28;45339;-77
2022/09/02 05:49:06;;;;;;;;;17.67;17.33;;;;;21.36;54.06;100733.59;5021377;28;45305;-78
2022/09/02 05:51:40;;;;;;;;;16.33;16.33;;;;;21.42;53.38;100748.84;5015827;28;45479;-77
2022/09/02 05:54:07;;;;;;;;;60.25;47.25;;;;;21.38;53.63;100753.13;5028522;28;45394;-78
2022/09/02 05:56:33;;;;;;;;;24.00;23.67;;;;;21.41;53.37;100747.22;5016171;28;45445;-76
2022/09/02 05:58:59;;;;;;;;;61.25;48.50;;;;;21.41;53.39;100758.03;5027215;28;47266;-76
2022/09/02 06:01:25;;;;;;;;;44.00;35.00;;;;;21.49;53.30;100773.00;5028691;28;47141;-74
2022/09/02 06:03:51;;;;;;;;;41.00;33.33;;;;;21.46;53.27;100770.78;5018345;28;45461;-77
2022/09/02 06:06:18;;;;;;;;;43.67;37.00;;;;;21.49;53.17;100767.56;5014412;28;45308;-75
2022/09/02 06:08:43;;;;;;;;;17.00;17.00;;;;;21.48;53.04;100757.84;5022082;28;45572;-76
2022/09/02 06:11:11;;;;;;;;;14.33;13.33;;;;;21.51;53.06;100757.34;5015444;28;46605;-76
2022/09/02 06:13:39;;;;;;;;;13.00;13.00;;;;;21.51;53.17;100775.44;5015584;28;45263;-77
2022/09/02 06:16:07;;;;;;;;;13.33;13.33;;;;;21.41;53.06;100758.03;5021694;28;45374;-78
2022/09/02 06:18:33;;;;;;;;;13.00;13.00;;;;;21.50;53.01;100771.13;5015981;28;45503;-77
2022/09/02 06:20:58;;;;;;;;;13.33;13.33;;;;;21.51;53.16;100773.56;5015269;28;46254;-77
2022/09/02 06:23:24;;;;;;;;;14.00;14.00;;;;;21.42;52.38;100743.44;5014663;28;45585;-78
2022/09/02 06:25:49;;;;;;;;;28.33;25.00;;;;;21.42;52.41;100746.13;5015182;28;45330;-77
2022/09/02 06:28:15;;;;;;;;;44.33;38.33;;;;;21.55;53.03;100763.09;5015117;28;45509;-78
2022/09/02 06:30:43;;;;;;;;;16.00;15.67;;;;;21.46;52.17;100746.44;5015775;28;45483;-76
2022/09/02 06:33:09;;;;;;;;;13.00;13.00;;;;;21.51;52.18;100754.66;5015266;28;45177;-77
2022/09/02 06:35:40;;;;;;;;;13.00;13.00;;;;;21.59;52.70;100766.94;5015178;28;45414;-76
2022/09/02 06:38:06;;;;;;;;;14.00;14.00;;;;;21.53;52.60;100762.50;5014940;28;45471;-77
2022/09/02 06:40:32;;;;;;;;;10.33;10.33;;;;;21.42;52.34;100737.19;5014879;28;45452;-76
2022/09/02 06:42:57;;;;;;;;;15.33;15.33;;;;;21.53;52.19;100766.03;5031795;28;45252;-76
2022/09/02 06:45:23;;;;;;;;;14.67;14.33;;;;;21.55;52.70;100769.28;5048141;28;45240;-77
2022/09/02 06:47:49;;;;;;;;;41.67;34.00;;;;;21.59;52.54;100766.09;5033999;28;45427;-77
2022/09/02 06:50:14;;;;;;;;;23.67;23.00;;;;;21.62;52.63;100766.44;5034810;28;47015;-77
2022/09/02 06:52:39;;;;;;;;;19.33;18.33;;;;;21.51;52.97;100737.59;5016741;28;45372;-79
2022/09/02 06:55:05;;;;;;;;;75.50;71.75;;;;;21.61;52.73;100750.47;5031017;28;45694;-78
2022/09/02 06:57:32;;;;;;;;;52.25;41.25;;;;;21.67;52.70;100752.19;5021704;28;46961;-79
2022/09/02 06:59:57;;;;;;;;;52.50;42.00;;;;;21.70;52.71;100735.44;5017771;28;46419;-78
2022/09/02 07:02:22;;;;;;;;;48.25;38.75;;;;;21.78;52.38;100739.63;5018875;28;45348;-78
2022/09/02 07:07:34;;;;;;;;;48.75;39.00;;;;;21.74;52.23;100723.06;5017843;28;45298;-78
2022/09/02 07:09:59;;;;;;;;;67.75;57.25;;;;;21.73;52.67;100715.19;5032236;28;46385;-78
2022/09/02 07:12:26;;;;;;;;;46.67;38.67;;;;;21.76;52.62;100723.63;5023708;28;45370;-77
2022/09/02 07:14:52;;;;;;;;;15.33;15.33;;;;;21.72;52.14;100721.66;5018145;28;45396;-77
2022/09/02 07:17:20;;;;;;;;;13.67;13.67;;;;;21.68;52.46;100729.47;5031360;28;45413;-78
2022/09/02 07:19:46;;;;;;;;;14.67;14.67;;;;;21.69;52.56;100729.22;5034578;28;46287;-77
2022/09/02 07:22:11;;;;;;;;;12.33;12.33;;;;;21.72;52.55;100736.00;5024302;28;45704;-77
2022/09/02 07:24:37;;;;;;;;;14.00;13.67;;;;;21.67;52.51;100728.63;5017612;28;45502;-77
2022/09/02 07:27:03;;;;;;;;;14.67;14.67;;;;;21.70;52.52;100733.53;5025977;28;46148;-77
2022/09/02 07:29:28;;;;;;;;;14.67;14.67;;;;;21.70;53.02;100725.44;5029318;28;45552;-77
2022/09/02 07:31:54;;;;;;;;;15.00;14.67;;;;;21.84;52.62;100748.66;5026136;28;45417;-78
2022/09/02 07:34:20;;;;;;;;;15.00;15.00;;;;;21.93;52.45;100755.22;5034162;28;47117;-76
2022/09/02 07:36:47;;;;;;;;;15.00;13.00;;;;;21.91;52.62;100741.97;5029617;28;45298;-76
2022/09/02 07:39:15;;;;;;;;;22.33;21.00;;;;;21.95;52.31;100736.88;5023915;28;47087;-76
2022/09/02 07:41:42;;;;;;;;;32.67;27.00;;;;;22.06;52.93;100741.34;5017766;28;45429;-76
2022/09/02 07:44:08;;;;;;;;;38.67;33.00;;;;;22.10;52.56;100730.00;5029901;28;45428;-78
2022/09/02 07:46:35;;;;;;;;;22.33;20.67;;;;;22.11;52.37;100724.34;5017072;28;45537;-76
2022/09/02 07:49:04;;;;;;;;;18.33;17.00;;;;;22.13;52.30;100719.50;5031476;28;45392;-76
2022/09/02 07:51:32;;;;;;;;;13.67;13.67;;;;;22.17;52.65;100719.81;5033174;28;45343;-76
2022/09/02 07:53:57;;;;;;;;;56.00;44.75;;;;;22.23;52.43;100724.22;5052362;28;45466;-77
2022/09/02 07:56:23;;;;;;;;;40.67;34.67;;;;;22.26;52.44;100712.88;5032616;28;45267;-78
2022/09/02 07:58:49;;;;;;;;;19.33;19.33;;;;;22.35;52.30;100704.31;5015200;28;45950;-76
2022/09/02 08:01:14;;;;;;;;;30.33;26.00;;;;;22.37;52.51;100703.00;5028535;28;45243;-78
2022/09/02 08:03:43;;;;;;;;;18.00;18.00;;;;;22.50;52.89;100706.34;5024407;28;45379;-78
2022/09/02 08:06:09;;;;;;;;;40.67;34.67;;;;;22.59;52.55;100698.63;5023011;28;45450;-78
2022/09/02 08:08:34;;;;;;;;;42.67;34.33;;;;;22.62;52.14;100692.69;5024018;28;45982;-77
2022/09/02 08:11:00;;;;;;;;;32.00;29.33;;;;;22.74;52.44;100704.16;5033543;28;45496;-78
2022/09/02 08:13:26;;;;;;;;;22.00;19.00;;;;;22.83;52.18;100709.94;5036862;28;45408;-77
2022/09/02 08:15:51;;;;;;;;;13.00;13.00;;;;;22.82;51.67;100692.06;5041521;28;47257;-80
2022/09/02 08:18:17;;;;;;;;;20.33;20.33;;;;;22.89;51.34;100692.66;5017129;28;45361;-78
2022/09/02 08:20:43;;;;;;;;;29.00;25.33;;;;;22.98;51.64;100700.31;5032145;28;45360;-78
2022/09/02 08:23:10;;;;;;;;;44.00;34.67;;;;;22.94;51.62;100691.88;5016839;28;45365;-77
2022/09/02 08:25:36;;;;;;;;;23.00;21.33;;;;;23.04;51.13;100697.38;5016592;28;45543;-76
2022/09/02 08:28:01;;;;;;;;;38.67;32.33;;;;;23.03;50.71;100689.50;5031809;28;48558;-77
2022/09/02 08:30:27;;;;;;;;;15.00;15.00;;;;;23.16;51.05;100704.47;5017496;28;45433;-77
2022/09/02 08:32:53;;;;;;;;;12.67;12.67;;;;;23.11;51.01;100697.16;5017124;28;45284;-78
2022/09/02 08:35:19;;;;;;;;;15.00;15.00;;;;;23.11;51.11;100701.75;5016844;28;45399;-76
2022/09/02 08:37:44;;;;;;;;;16.00;15.67;;;;;23.10;50.82;100709.06;5016899;28;45340;-76
2022/09/02 08:40:16;;;;;;;;;16.00;15.00;;;;;23.14;51.22;100703.94;5016954;28;45332;-77
2022/09/02 08:42:52;;;;;;;;;13.00;13.00;;;;;23.13;51.65;100700.41;5017708;28;45353;-79
2022/09/02 08:45:31;;;;;;;;;14.00;14.00;;;;;23.23;51.73;100709.69;5052767;27;46147;-76
2022/09/02 08:48:20;;;;;;;;;12.00;12.00;;;;;23.19;51.42;100712.09;5069929;27;48406;-77
2022/09/02 08:50:49;;;;;;;;;15.00;14.67;;;;;23.10;51.12;100725.31;5017763;28;45517;-76
2022/09/02 08:53:39;;;;;;;;;12.67;12.67;;;;;23.14;51.55;100726.47;5017329;28;45322;-75
2022/09/02 08:56:08;;;;;;;;;15.67;15.33;;;;;23.10;51.64;100719.09;5034006;28;46201;-78
2022/09/02 08:58:41;;;;;;;;;15.67;14.67;;;;;23.14;51.40;100737.31;5015856;28;45565;-78
2022/09/02 09:01:25;;;;;;;;;13.00;12.00;;;;;23.15;51.19;100736.22;5016331;28;45353;-78
2022/09/02 09:04:05;;;;;;;;;14.33;14.33;;;;;23.16;51.70;100745.97;5023796;28;45376;-78
2022/09/02 09:06:58;;;;;;;;;13.67;13.67;;;;;23.22;51.42;100760.38;5026687;28;45341;-78
2022/09/02 09:09:39;;;;;;;;;14.67;14.33;;;;;23.30;51.80;100767.22;5024559;28;47243;-79
2022/09/02 09:12:14;;;;;;;;;14.67;14.00;;;;;23.37;52.25;100767.84;5015929;28;45405;-79
2022/09/02 09:14:54;;;;;;;;;15.00;15.00;;;;;23.45;51.91;100759.22;5016558;28;45675;-78
2022/09/02 09:17:31;;;;;;;;;17.00;15.67;;;;;23.63;52.43;100775.31;5021936;28;46462;-79
2022/09/02 09:20:02;;;;;;;;;15.00;14.00;;;;;23.74;52.43;100782.47;5015764;28;45625;-80
2022/09/02 09:22:32;;;;;;;;;14.00;13.00;;;;;23.77;51.66;100776.53;5016325;28;45280;-79
2022/09/02 09:24:58;;;;;;;;;13.00;13.00;;;;;23.80;51.72;100775.97;5016103;28;45425;-79
2022/09/02 09:27:24;;;;;;;;;16.67;15.00;;;;;23.85;51.80;100783.31;5019010;28;47407;-79
2022/09/02 09:29:51;;;;;;;;;12.67;12.67;;;;;23.91;51.83;100782.28;5015617;28;45328;-79
2022/09/02 09:32:26;;;;;;;;;8.67;7.33;;;;;23.96;51.43;100778.78;5015257;28;45298;-79
2022/09/02 09:34:52;;;;;;;;;13.33;11.33;;;;;23.96;51.43;100782.31;5016485;28;45308;-81
2022/09/02 09:37:28;;;;;;;;;12.33;12.33;;;;;23.86;51.79;100770.56;5015932;28;45701;-79
2022/09/02 09:39:53;;;;;;;;;16.00;13.33;;;;;23.92;51.60;100777.66;5028573;28;47653;-80
2022/09/02 09:42:31;;;;;;;;;10.67;10.00;;;;;23.92;51.30;100781.22;5032242;28;45968;-79
2022/09/02 09:44:56;;;;;;;;;14.00;14.00;;;;;23.86;51.30;100768.69;5032934;28;45385;-79
2022/09/02 09:47:24;;;;;;;;;13.33;13.33;;;;;23.78;51.03;100756.44;5033969;28;45464;-78
2022/09/02 09:50:10;;;;;;;;;13.33;13.33;;;;;23.76;51.24;100779.50;5025134;28;46265;-79
2022/09/02 09:52:36;;;;;;;;;18.00;17.00;;;;;23.66;51.72;100753.09;5046167;28;45433;-80
2022/09/02 09:55:21;;;;;;;;;17.33;17.33;;;;;23.66;51.47;100759.34;5034086;28;45525;-79
2022/09/02 09:57:48;;;;;;;;;14.67;14.67;;;;;23.72;51.46;100752.06;5015272;28;45593;-79
2022/09/02 10:00:33;;;;;;;;;16.33;16.33;;;;;23.77;51.39;100751.28;5023583;28;48327;-80
2022/09/02 10:03:05;;;;;;;;;13.67;13.67;;;;;23.83;51.08;100761.06;5026824;28;45868;-81
2022/09/02 10:06:24;;;;;;;;;17.67;16.00;;;;;23.73;51.10;100728.47;5022439;28;45455;-80
2022/09/02 10:08:49;;;;;;;;;15.33;15.33;;;;;23.93;50.81;100752.16;4992735;28;46049;-81
2022/09/02 10:11:32;;;;;;;;;15.67;15.00;;;;;23.88;51.00;100731.25;5017781;28;46155;-79
2022/09/02 10:14:26;;;;;;;;;17.00;16.00;;;;;24.17;50.91;100751.75;5014058;28;45305;-81
2022/09/02 10:16:57;;;;;;;;;15.00;15.00;;;;;24.30;50.58;100745.00;5022764;28;45431;-79
2022/09/02 10:19:43;;;;;;;;;16.67;16.67;;;;;24.34;50.00;100732.53;5015898;28;45385;-80
2022/09/02 10:22:34;;;;;;;;;14.67;14.00;;;;;24.39;49.82;100740.66;5030022;28;47576;-81
2022/09/02 10:25:15;;;;;;;;;15.33;15.33;;;;;24.42;49.91;100732.00;5018581;28;45366;-80
2022/09/02 10:28:03;;;;;;;;;15.33;15.33;;;;;24.58;49.97;100730.09;5019170;28;45263;-80
2022/09/02 10:30:51;;;;;;;;;14.33;14.33;;;;;24.71;49.58;100742.38;5018609;28;45418;-80
2022/09/02 10:33:33;;;;;;;;;14.00;14.00;;;;;24.77;49.64;100732.31;5041101;28;45400;-80
2022/09/02 10:36:13;;;;;;;;;16.33;15.67;;;;;24.70;49.08;100721.72;5018896;28;45472;-79
2022/09/02 10:38:45;;;;;;;;;15.33;15.00;;;;;24.74;49.36;100727.41;5031372;28;45275;-80
2022/09/02 10:41:32;;;;;;;;;14.67;14.67;;;;;24.93;49.27;100748.66;5018465;28;45399;-81
2022/09/02 10:44:21;;;;;;;;;15.00;15.00;;;;;24.99;49.15;100747.56;5031464;28;48286;-79
2022/09/02 10:46:59;;;;;;;;;16.33;15.00;;;;;25.01;49.50;100734.53;5030923;28;45298;-83
2022/09/02 10:49:43;;;;;;;;;13.67;12.33;;;;;25.15;49.16;100734.78;5020944;28;45235;-81
2022/09/02 10:52:37;;;;;;;;;15.00;15.00;;;;;25.20;49.12;100728.53;5031625;27;45297;-81
2022/09/02 10:55:02;;;;;;;;;18.67;17.00;;;;;25.19;49.23;100722.28;5026942;28;46707;-82
2022/09/02 10:58:11;;;;;;;;;15.00;15.00;;;;;25.19;48.80;100716.00;5023687;27;45454;-82
2022/09/02 11:00:40;;;;;;;;;15.00;15.00;;;;;25.29;48.67;100718.72;5032234;28;45483;-83
2022/09/02 11:03:14;;;;;;;;;15.33;15.33;;;;;25.26;48.40;100718.47;5027518;28;47628;-79
2022/09/02 11:05:46;;;;;;;;;13.33;13.33;;;;;25.21;48.82;100714.69;5039523;28;46241;-78
2022/09/02 11:08:24;;;;;;;;;16.00;15.67;;;;;25.20;48.40;100714.94;5042373;28;45424;-78
2022/09/02 11:11:05;;;;;;;;;15.00;14.00;;;;;25.26;48.79;100724.69;5039089;28;45319;-78
2022/09/02 11:13:59;;;;;;;;;17.00;16.00;;;;;25.26;48.46;100730.13;5029335;28;45391;-78
2022/09/02 11:16:28;;;;;;;;;16.67;16.67;;;;;25.20;48.03;100723.91;5031618;28;45414;-77
2022/09/02 11:18:59;;;;;;;;;15.00;14.00;;;;;25.19;48.44;100724.16;5035305;28;45455;-78
2022/09/02 11:21:48;;;;;;;;;16.33;15.33;;;;;25.04;49.06;100705.97;5026250;28;45350;-77
2022/09/02 11:24:44;;;;;;;;;14.00;14.00;;;;;25.05;49.21;100716.56;5029295;28;47190;-82
2022/09/02 11:27:28;;;;;;;;;15.33;15.33;;;;;25.05;49.62;100729.38;5023844;28;46736;-82